Aérodrome :
LOGIN :

S'inscrire | Disclaimer

   EN    FR    IT 

 










Légende :    VFR   VFR Marginal   IFR   IFR Intensif   IFR Très Intensif
Visi : 
Plafond : 
>= 8 km
>= 3000ft
5 à 8 km
1000 à 3000 ft
1500m à 5 km
500 à 1000 ft
800 à 1500m
200 à 500 ft
< 800m
< 200 ft
Symboles :   Orages  Brouillard  Fortes neiges  Fortes précipitations  Vent > 20 kt
SIGMETs :   Divers  Orages  Givrage  Turbulence  Onde Orograph.  Cendres Volcan.







- Altitude de l'aérodrome : 17 ft
- Code IATA : MPL
- Voir les cartes d'approche


LFMT - Montpellier Méditerranée

DERNIER METAR :
  • 250830Z AUTO VRB02KT 9999 OVC014/// 19/15 Q1019 TEMPO 18012KT 1200 BR BKN005

METARs EXPIRÉS :
  • 250800Z AUTO VRB03KT 9999 OVC012 18/15 Q1019 TEMPO 0500 FG BECMG NSC
  • 250730Z AUTO 05005KT 030V090 9999 OVC011 18/16 Q1018 TEMPO 0500 FG BECMG NSC
  • 250700Z AUTO 03005KT 8000 OVC012 17/15 Q1018 TEMPO 0500 FG BKN003
  • 250630Z AUTO 04006KT 7000 BKN012 16/15 Q1018 TEMPO 0500 FG BKN003
  • 250600Z AUTO 01006KT 5000 BR BKN011 16/15 Q1017 TEMPO 0500 FG BKN003

TAF TAF LFMT
Valide du 25 à 09h jusqu'au 26 à 09h UTC


250800Z 2509/2609 VRB02KT CAVOK
TEMPO 2509/2512 18012KT 1200 BR BKN005
BECMG 2512/2514 32012KT
TEMPO 2514/2602 32015G25KT
ATIS : +33 4 67 13 11 70
Pas de NOTAMs connus pour ce terrain.



MET'MAP, la Météo Aéronautique d'un coup d'oeil ! - Copyright ORBIFLY Décembre 2007 - Disclaimer

ORBIFLY MET'MAP TEAM :

Programmation & Développement : Alexandra Zaïnal
Conception & Développement : Baudouin d'Aumeries
Co-Programmation & Développement : Marc-Olivier Méhu
Soutien technique & logistique : Manuel Goepfert

Contact : metmap@orbifly.com




SOURCES & CREDITS :

   NOAA